createdAt,value
2022-12-11T00:00:57.062Z,17.93
2022-12-11T00:03:27.012Z,18.77
2022-12-11T00:05:54.982Z,19.27
2022-12-11T00:08:23.187Z,18.53
2022-12-11T00:10:51.444Z,17.60
2022-12-11T00:13:19.336Z,18.43
2022-12-11T00:15:47.282Z,19.80
2022-12-11T00:18:16.493Z,17.57
2022-12-11T00:20:44.433Z,18.80
2022-12-11T00:23:12.349Z,18.50
2022-12-11T00:25:43.932Z,19.27
2022-12-11T00:28:12.089Z,18.20
2022-12-11T00:30:40.779Z,19.53
2022-12-11T00:33:08.731Z,18.77
2022-12-11T00:35:41.343Z,19.20
2022-12-11T00:38:09.775Z,18.20
2022-12-11T00:40:38.357Z,19.23
2022-12-11T00:43:06.311Z,18.47
2022-12-11T00:45:37.593Z,18.53
2022-12-11T00:48:06.660Z,19.77
2022-12-11T00:50:37.232Z,19.70
2022-12-11T00:53:07.641Z,20.17
2022-12-11T00:55:38.601Z,20.80
2022-12-11T00:58:06.825Z,20.90
2022-12-11T01:00:35.305Z,20.97
2022-12-11T01:03:03.266Z,20.23
2022-12-11T01:05:31.451Z,21.00
2022-12-11T01:07:59.503Z,21.33
2022-12-11T01:10:28.014Z,20.13
2022-12-11T01:12:57.944Z,22.50
2022-12-11T01:15:28.429Z,19.87
2022-12-11T01:17:56.339Z,20.40
2022-12-11T01:20:25.856Z,21.07
2022-12-11T01:22:54.487Z,20.80
2022-12-11T01:25:22.808Z,21.30
2022-12-11T01:27:53.523Z,21.83
2022-12-11T01:30:22.924Z,21.80
2022-12-11T01:32:51.312Z,20.67
2022-12-11T01:35:20.244Z,19.13
2022-12-11T01:37:48.564Z,19.17
2022-12-11T01:40:17.933Z,18.57
2022-12-11T01:42:45.881Z,17.57
2022-12-11T01:45:30.616Z,18.50
2022-12-11T01:48:02.985Z,18.70
2022-12-11T01:50:34.039Z,17.25
2022-12-11T01:53:03.561Z,17.53
2022-12-11T01:55:31.446Z,18.53
2022-12-11T01:57:59.693Z,17.70
2022-12-11T02:00:29.002Z,18.87
2022-12-11T02:02:56.994Z,17.37
2022-12-11T02:05:24.838Z,17.87
2022-12-11T02:07:56.558Z,16.87
2022-12-11T02:10:29.362Z,18.07
2022-12-11T02:13:01.881Z,17.87
2022-12-11T02:15:37.648Z,18.20
2022-12-11T02:18:17.643Z,17.30
2022-12-11T02:20:52.110Z,17.30
2022-12-11T02:23:53.545Z,17.30
2022-12-11T02:26:35.747Z,16.53
2022-12-11T02:29:08.271Z,18.17
2022-12-11T02:31:39.786Z,18.00
2022-12-11T02:34:13.105Z,18.73
2022-12-11T02:36:46.120Z,17.90
2022-12-11T02:39:16.544Z,16.73
2022-12-11T02:41:49.821Z,18.30
2022-12-11T02:44:22.087Z,16.67
2022-12-11T02:46:50.275Z,18.05
2022-12-11T02:49:19.743Z,18.63
2022-12-11T02:51:47.683Z,17.80
2022-12-11T02:54:20.811Z,18.07
2022-12-11T02:56:52.810Z,16.87
2022-12-11T02:59:29.520Z,17.73
2022-12-11T03:01:57.559Z,16.87
2022-12-11T03:04:25.560Z,16.47
2022-12-11T03:06:59.904Z,16.90
2022-12-11T03:09:28.698Z,16.20
2022-12-11T03:11:56.631Z,15.50
2022-12-11T03:14:25.856Z,17.88
2022-12-11T03:17:00.994Z,16.07
2022-12-11T03:19:35.537Z,16.87
2022-12-11T03:22:11.780Z,17.03
2022-12-11T03:24:45.074Z,16.43
2022-12-11T03:27:18.587Z,16.67
2022-12-11T03:29:55.009Z,17.13
2022-12-11T03:32:27.866Z,17.77
2022-12-11T03:35:00.924Z,16.80
2022-12-11T03:37:32.376Z,17.17
2022-12-11T03:40:06.377Z,16.40
2022-12-11T03:42:35.301Z,17.43
2022-12-11T03:45:08.597Z,16.90
2022-12-11T03:47:38.906Z,16.20
2022-12-11T03:50:10.636Z,17.27
2022-12-11T03:52:45.513Z,16.83
2022-12-11T03:55:15.977Z,16.97
2022-12-11T03:57:44.521Z,17.80
2022-12-11T04:00:16.711Z,18.03
2022-12-11T04:03:11.211Z,16.50
2022-12-11T04:05:41.253Z,16.05
2022-12-11T04:08:09.194Z,16.70
2022-12-11T04:10:37.263Z,17.37
2022-12-11T04:13:05.558Z,17.10
2022-12-11T04:15:34.197Z,16.73
2022-12-11T04:18:19.959Z,18.30
2022-12-11T04:21:05.271Z,15.57
2022-12-11T04:23:50.791Z,17.03
2022-12-11T04:26:20.929Z,15.13
2022-12-11T04:28:52.509Z,15.37
2022-12-11T04:31:23.738Z,15.53
2022-12-11T04:33:51.730Z,17.27
2022-12-11T04:36:19.780Z,16.00
2022-12-11T04:38:47.764Z,15.87
2022-12-11T04:41:16.836Z,15.90
2022-12-11T04:43:45.449Z,14.90
2022-12-11T04:46:18.150Z,15.27
2022-12-11T04:48:52.385Z,13.77
2022-12-11T04:51:23.634Z,12.33
2022-12-11T04:53:51.825Z,13.53
2022-12-11T04:56:19.860Z,14.27
2022-12-11T04:58:48.278Z,12.67
2022-12-11T05:01:17.834Z,12.83
2022-12-11T05:03:47.607Z,12.40
2022-12-11T05:06:15.792Z,14.07
2022-12-11T05:08:45.144Z,13.02
2022-12-11T05:11:15.062Z,12.57
2022-12-11T05:13:43.502Z,12.75
2022-12-11T05:16:13.488Z,11.93
2022-12-11T05:18:41.784Z,13.30
2022-12-11T05:21:13.069Z,13.60
2022-12-11T05:23:41.541Z,12.77
2022-12-11T05:26:12.613Z,13.30
2022-12-11T05:28:41.760Z,13.37
2022-12-11T05:31:13.709Z,13.00
2022-12-11T05:33:41.809Z,12.30
2022-12-11T05:36:17.144Z,12.13
2022-12-11T05:38:45.101Z,12.50
2022-12-11T05:41:15.537Z,12.67
2022-12-11T05:43:43.832Z,11.80
2022-12-11T05:46:14.850Z,12.70
2022-12-11T05:51:23.935Z,12.77
2022-12-11T05:53:53.703Z,12.53
2022-12-11T05:56:23.164Z,12.00
2022-12-11T05:58:51.672Z,12.50
2022-12-11T06:01:23.023Z,12.17
2022-12-11T06:03:51.552Z,11.87
2022-12-11T06:06:19.418Z,13.30
2022-12-11T06:08:51.296Z,12.67
2022-12-11T06:11:23.749Z,12.03
2022-12-11T06:13:52.393Z,13.13
2022-12-11T06:16:20.960Z,13.67
2022-12-11T06:18:49.097Z,13.10
2022-12-11T06:21:19.438Z,11.87
2022-12-11T06:23:49.821Z,12.93
2022-12-11T06:26:19.232Z,13.13
2022-12-11T06:28:48.503Z,13.13
2022-12-11T06:31:16.520Z,13.57
2022-12-11T06:33:44.534Z,14.13
2022-12-11T06:36:15.028Z,12.73
2022-12-11T06:38:43.114Z,13.67
2022-12-11T06:41:12.716Z,13.67
2022-12-11T06:43:42.898Z,13.77
2022-12-11T06:46:13.021Z,13.50
2022-12-11T06:48:42.161Z,13.33
2022-12-11T06:51:11.527Z,14.53
2022-12-11T06:53:39.756Z,14.47
2022-12-11T06:56:09.566Z,13.67
2022-12-11T06:58:40.290Z,13.47
2022-12-11T07:01:15.861Z,13.80
2022-12-11T07:03:46.665Z,14.40
2022-12-11T07:06:14.935Z,14.23
2022-12-11T07:08:43.514Z,14.10
2022-12-11T07:11:13.050Z,13.27
2022-12-11T07:13:42.965Z,14.47
2022-12-11T07:16:11.976Z,14.77
2022-12-11T07:18:41.406Z,14.47
2022-12-11T07:21:11.124Z,15.40
2022-12-11T07:23:39.263Z,13.73
2022-12-11T07:26:08.096Z,12.70
2022-12-11T07:28:36.743Z,13.23
2022-12-11T07:31:08.386Z,14.83
2022-12-11T07:33:36.466Z,13.90
2022-12-11T07:36:05.008Z,13.30
2022-12-11T07:38:33.101Z,14.57
2022-12-11T07:41:02.331Z,13.70
2022-12-11T07:43:32.363Z,13.97
2022-12-11T07:46:02.916Z,13.97
2022-12-11T07:48:32.439Z,13.80
2022-12-11T07:51:09.935Z,13.63
2022-12-11T07:53:37.828Z,14.50
2022-12-11T07:56:06.556Z,13.30
2022-12-11T07:58:34.603Z,14.80
2022-12-11T08:01:02.629Z,12.80
2022-12-11T08:03:32.033Z,12.63
2022-12-11T08:05:59.962Z,13.50
2022-12-11T08:08:27.912Z,15.33
2022-12-11T08:10:55.791Z,14.30
2022-12-11T08:13:23.730Z,14.67
2022-12-11T08:15:51.996Z,13.67
2022-12-11T08:18:21.649Z,14.27
2022-12-11T08:20:50.913Z,13.27
2022-12-11T08:23:19.112Z,14.20
2022-12-11T08:25:46.990Z,15.40
2022-12-11T08:28:14.930Z,15.23
2022-12-11T08:30:42.891Z,13.97
2022-12-11T08:33:10.821Z,14.23
2022-12-11T08:35:40.412Z,14.57
2022-12-11T08:38:09.609Z,14.30
2022-12-11T08:40:37.485Z,15.10
2022-12-11T08:43:05.380Z,14.87
2022-12-11T08:45:33.317Z,14.17
2022-12-11T08:48:01.423Z,14.77
2022-12-11T08:50:29.332Z,15.60
2022-12-11T08:52:57.509Z,15.43
2022-12-11T08:55:26.944Z,14.87
2022-12-11T08:57:55.396Z,15.93
2022-12-11T09:00:24.048Z,13.93
2022-12-11T09:02:51.909Z,15.33
2022-12-11T09:05:19.869Z,16.37
2022-12-11T09:07:47.828Z,16.70
2022-12-11T09:10:15.774Z,15.33
2022-12-11T09:12:45.053Z,15.90
2022-12-11T09:15:13.463Z,15.47
2022-12-11T09:17:41.819Z,15.77
2022-12-11T09:20:10.361Z,15.67
2022-12-11T09:22:38.583Z,16.50
2022-12-11T09:25:07.529Z,14.63
2022-12-11T09:27:35.819Z,13.97
2022-12-11T09:30:05.881Z,14.05
2022-12-11T09:32:33.802Z,14.17
2022-12-11T09:35:01.628Z,14.03
2022-12-11T09:37:29.716Z,15.03
2022-12-11T09:40:01.276Z,16.60
2022-12-11T09:42:43.460Z,16.30
2022-12-11T09:45:16.123Z,14.43
2022-12-11T09:47:45.579Z,16.83
2022-12-11T09:50:18.399Z,16.53
2022-12-11T09:53:04.093Z,18.17
2022-12-11T09:55:39.512Z,18.00
2022-12-11T09:58:15.488Z,17.47
2022-12-11T10:00:48.958Z,17.97
2022-12-11T10:03:32.894Z,19.53
2022-12-11T10:06:08.540Z,17.23
2022-12-11T10:08:43.476Z,17.07
2022-12-11T10:11:31.029Z,19.23
2022-12-11T10:14:07.015Z,21.63
2022-12-11T10:16:41.108Z,20.93
2022-12-11T10:19:17.358Z,20.80
2022-12-11T10:21:47.140Z,19.77
2022-12-11T10:24:57.589Z,20.30
2022-12-11T10:27:19.150Z,21.13
2022-12-11T10:29:47.434Z,22.13
2022-12-11T10:32:24.763Z,24.53
2022-12-11T10:35:01.131Z,23.77
2022-12-11T10:37:29.339Z,23.13
2022-12-11T10:39:57.268Z,26.13
2022-12-11T10:42:25.268Z,24.37
2022-12-11T10:44:57.653Z,26.07
2022-12-11T10:47:27.232Z,23.27
2022-12-11T10:49:58.292Z,25.00
2022-12-11T10:52:29.407Z,25.97
2022-12-11T10:55:01.127Z,24.73
2022-12-11T10:57:31.009Z,23.70
2022-12-11T11:00:00.515Z,23.87
2022-12-11T11:02:33.060Z,24.03
2022-12-11T11:05:11.959Z,23.57
2022-12-11T11:07:40.234Z,21.80
2022-12-11T11:10:16.910Z,21.07
2022-12-11T11:12:49.033Z,19.87
2022-12-11T11:15:20.487Z,20.70
2022-12-11T11:17:55.492Z,19.60
2022-12-11T11:20:26.514Z,19.80
2022-12-11T11:22:56.861Z,17.83
2022-12-11T11:25:26.534Z,18.17
2022-12-11T11:27:56.453Z,18.53
2022-12-11T11:30:27.350Z,17.37
2022-12-11T11:33:00.735Z,17.47
2022-12-11T11:35:30.905Z,18.07
2022-12-11T11:38:04.727Z,17.43
2022-12-11T11:40:37.853Z,15.90
2022-12-11T11:43:15.172Z,16.40
2022-12-11T11:45:47.806Z,19.03
2022-12-11T11:48:29.565Z,18.87
2022-12-11T11:50:58.446Z,17.13
2022-12-11T11:53:32.889Z,18.60
2022-12-11T11:56:08.291Z,17.30
2022-12-11T11:58:41.738Z,16.50
2022-12-11T12:01:16.048Z,16.87
2022-12-11T12:03:46.263Z,17.27
2022-12-11T12:06:23.557Z,17.40
2022-12-11T12:08:57.443Z,16.27
2022-12-11T12:11:32.413Z,17.27
2022-12-11T12:14:22.759Z,17.23
2022-12-11T12:17:07.417Z,17.93
2022-12-11T12:19:46.205Z,17.67
2022-12-11T12:22:28.093Z,18.80
2022-12-11T12:25:04.010Z,16.20
2022-12-11T12:27:55.017Z,16.90
2022-12-11T12:30:24.065Z,16.53
2022-12-11T12:33:11.846Z,17.73
2022-12-11T12:35:50.306Z,19.50
2022-12-11T12:38:27.669Z,17.43
2022-12-11T12:41:04.127Z,17.53
2022-12-11T12:43:58.219Z,19.13
2022-12-11T12:46:37.682Z,17.13
2022-12-11T12:49:08.828Z,16.47
2022-12-11T12:51:38.344Z,18.13
2022-12-11T12:54:12.487Z,17.73
2022-12-11T12:56:43.614Z,18.70
2022-12-11T12:59:21.742Z,18.03
2022-12-11T13:01:55.077Z,16.60
2022-12-11T13:04:55.461Z,16.07
2022-12-11T13:07:30.457Z,16.70
2022-12-11T13:10:01.813Z,16.33
2022-12-11T13:12:42.143Z,15.60
2022-12-11T13:15:34.488Z,14.80
2022-12-11T13:18:04.594Z,15.80
2022-12-11T13:20:34.675Z,13.57
2022-12-11T13:23:20.334Z,14.00
2022-12-11T13:25:54.505Z,12.53
2022-12-11T13:28:36.615Z,12.97
2022-12-11T13:31:09.009Z,12.17
2022-12-11T13:33:43.675Z,13.70
2022-12-11T13:36:32.255Z,13.87
2022-12-11T13:39:04.499Z,13.43
2022-12-11T13:41:36.142Z,13.40
2022-12-11T13:44:05.627Z,11.97
2022-12-11T13:46:37.374Z,13.67
2022-12-11T13:49:08.325Z,12.90
2022-12-11T13:51:37.885Z,12.83
2022-12-11T13:54:17.330Z,12.23
2022-12-11T13:56:59.529Z,12.57
2022-12-11T13:59:31.029Z,12.50
2022-12-11T14:02:03.976Z,12.90
2022-12-11T14:04:34.918Z,13.60
2022-12-11T14:07:07.639Z,12.97
2022-12-11T14:09:41.007Z,12.10
2022-12-11T14:12:17.327Z,12.87
2022-12-11T14:14:47.952Z,12.57
2022-12-11T14:17:19.220Z,12.17
2022-12-11T14:19:48.863Z,12.77
2022-12-11T14:22:21.078Z,11.57
2022-12-11T14:24:55.962Z,12.00
2022-12-11T14:27:25.167Z,11.30
2022-12-11T14:29:53.457Z,12.47
2022-12-11T14:32:31.267Z,12.73
2022-12-11T14:35:01.613Z,12.40
2022-12-11T14:37:29.848Z,11.00
2022-12-11T14:40:03.698Z,11.93
2022-12-11T14:42:35.028Z,12.63
2022-12-11T14:45:08.251Z,13.23
2022-12-11T14:47:42.032Z,13.27
2022-12-11T14:50:18.404Z,13.80
2022-12-11T14:52:49.100Z,13.00
2022-12-11T14:55:22.436Z,14.40
2022-12-11T14:57:55.994Z,13.63
2022-12-11T15:00:26.307Z,13.67
2022-12-11T15:03:02.206Z,14.33
2022-12-11T15:05:35.774Z,13.13
2022-12-11T15:08:24.921Z,14.00
2022-12-11T15:11:07.352Z,13.90
2022-12-11T15:13:37.779Z,14.60
2022-12-11T15:16:08.707Z,14.10
2022-12-11T15:18:39.269Z,14.57
2022-12-11T15:21:10.439Z,14.60
2022-12-11T15:23:51.198Z,14.73
2022-12-11T15:26:20.828Z,15.60
2022-12-11T15:28:48.800Z,16.60
2022-12-11T15:31:26.874Z,15.17
2022-12-11T15:33:55.167Z,15.70
2022-12-11T15:36:26.645Z,16.53
2022-12-11T15:38:54.623Z,15.50
2022-12-11T15:41:25.031Z,13.90
2022-12-11T15:43:58.847Z,16.23
2022-12-11T15:46:27.496Z,15.10
2022-12-11T15:48:58.449Z,15.17
2022-12-11T15:51:27.494Z,15.63
2022-12-11T15:53:55.427Z,14.93
2022-12-11T15:56:24.706Z,14.63
2022-12-11T15:58:52.583Z,14.87
2022-12-11T16:01:20.842Z,16.03
2022-12-11T16:03:50.354Z,14.43
2022-12-11T16:06:18.305Z,15.07
2022-12-11T16:08:46.199Z,15.17
2022-12-11T16:11:15.195Z,14.53
2022-12-11T16:13:44.425Z,14.53
2022-12-11T16:16:12.428Z,14.73
2022-12-11T16:18:40.464Z,15.23
2022-12-11T16:21:08.502Z,14.77
2022-12-11T16:23:36.429Z,14.40
2022-12-11T16:26:09.237Z,14.13
2022-12-11T16:28:37.258Z,15.10
2022-12-11T16:31:11.463Z,14.73
2022-12-11T16:33:39.559Z,14.13
2022-12-11T16:36:13.735Z,15.50
2022-12-11T16:38:41.597Z,15.83
2022-12-11T16:41:09.504Z,13.83
2022-12-11T16:43:37.414Z,15.00
2022-12-11T16:46:07.007Z,15.93
2022-12-11T16:48:34.938Z,15.03
2022-12-11T16:51:02.886Z,15.23
2022-12-11T16:53:30.841Z,15.07
2022-12-11T16:55:58.677Z,15.50
2022-12-11T16:58:26.539Z,15.60
2022-12-11T17:01:02.272Z,14.30
2022-12-11T17:03:32.996Z,15.03
2022-12-11T17:06:00.926Z,15.13
2022-12-11T17:08:28.906Z,14.60
2022-12-11T17:10:56.854Z,14.20
2022-12-11T17:13:24.767Z,15.00
2022-12-11T17:15:54.091Z,15.30
2022-12-11T17:18:22.152Z,16.67
2022-12-11T17:20:52.941Z,16.77
2022-12-11T17:23:21.034Z,14.90
2022-12-11T17:25:49.831Z,14.77
2022-12-11T17:28:17.708Z,15.77
2022-12-11T17:30:48.593Z,14.73
2022-12-11T17:33:17.095Z,15.37
2022-12-11T17:35:45.023Z,15.30
2022-12-11T17:38:14.237Z,15.63
2022-12-11T17:40:42.286Z,13.90
2022-12-11T17:43:11.067Z,15.47
2022-12-11T17:45:42.675Z,14.15
2022-12-11T17:48:10.705Z,15.50
2022-12-11T17:50:41.516Z,15.50
2022-12-11T17:53:09.747Z,15.43
2022-12-11T17:55:42.785Z,15.70
2022-12-11T17:58:11.515Z,15.33
2022-12-11T18:00:39.983Z,16.00
2022-12-11T18:03:08.176Z,14.10
2022-12-11T18:05:36.539Z,14.67
2022-12-11T18:08:04.652Z,15.27
2022-12-11T18:10:32.790Z,14.77
2022-12-11T18:13:02.369Z,14.80
2022-12-11T18:15:30.277Z,15.90
2022-12-11T18:17:58.371Z,14.23
2022-12-11T18:20:27.519Z,14.70
2022-12-11T18:22:56.881Z,14.73
2022-12-11T18:25:25.053Z,14.80
2022-12-11T18:27:55.037Z,14.50
2022-12-11T18:30:25.387Z,14.13
2022-12-11T18:32:53.345Z,13.23
2022-12-11T18:35:21.569Z,15.43
2022-12-11T18:37:49.432Z,15.57
2022-12-11T18:40:17.442Z,14.70
2022-12-11T18:42:45.368Z,15.63
2022-12-11T18:45:13.531Z,14.27
2022-12-11T18:47:42.883Z,15.27
2022-12-11T18:50:10.757Z,15.03
2022-12-11T18:52:38.610Z,13.80
2022-12-11T18:55:08.594Z,15.50
2022-12-11T18:57:36.623Z,15.70
2022-12-11T19:00:07.930Z,14.30
2022-12-11T19:02:36.248Z,15.43
2022-12-11T19:05:06.284Z,15.83
2022-12-11T19:07:34.203Z,12.80
2022-12-11T19:10:02.145Z,14.33
2022-12-11T19:12:30.066Z,16.13
2022-12-11T19:14:57.907Z,14.43
2022-12-11T19:17:25.783Z,15.97
2022-12-11T19:19:53.680Z,16.33
2022-12-11T19:22:23.001Z,18.07
2022-12-11T19:24:50.958Z,17.60
2022-12-11T19:27:18.817Z,16.53
2022-12-11T19:29:46.745Z,14.63
2022-12-11T19:32:14.698Z,15.47
2022-12-11T19:34:42.610Z,14.60
2022-12-11T19:37:10.563Z,15.50
2022-12-11T19:39:41.433Z,16.27
2022-12-11T19:42:09.333Z,16.70
2022-12-11T19:44:37.323Z,15.77
2022-12-11T19:47:11.493Z,17.17
2022-12-11T19:49:39.552Z,15.10
2022-12-11T19:52:07.486Z,15.67
2022-12-11T19:54:35.595Z,15.30
2022-12-11T19:57:05.105Z,15.40
2022-12-11T19:59:33.039Z,14.50
2022-12-11T20:02:01.035Z,15.37
2022-12-11T20:04:29.169Z,15.63
2022-12-11T20:06:57.005Z,15.60
2022-12-11T20:09:25.259Z,15.67
2022-12-11T20:11:53.544Z,15.20
2022-12-11T20:14:25.317Z,15.40
2022-12-11T20:17:11.873Z,14.93
2022-12-11T20:19:40.823Z,15.13
2022-12-11T20:22:09.151Z,15.27
2022-12-11T20:24:37.688Z,14.80
2022-12-11T20:27:05.613Z,14.73
2022-12-11T20:29:34.899Z,14.50
2022-12-11T20:32:03.055Z,13.93
2022-12-11T20:34:31.346Z,14.20
2022-12-11T20:37:00.264Z,14.82
2022-12-11T20:39:28.970Z,15.07
2022-12-11T20:41:56.907Z,14.63
2022-12-11T20:44:24.968Z,14.57
2022-12-11T20:46:54.662Z,14.37
2022-12-11T20:49:22.712Z,14.50
2022-12-11T20:51:50.579Z,14.00
2022-12-11T20:54:18.868Z,15.13
2022-12-11T20:56:46.948Z,15.10
2022-12-11T20:59:14.953Z,15.30
2022-12-11T21:01:42.880Z,13.80
2022-12-11T21:04:12.584Z,14.55
2022-12-11T21:06:41.928Z,14.33
2022-12-11T21:09:17.724Z,13.83
2022-12-11T21:11:45.854Z,13.73
2022-12-11T21:14:14.465Z,14.57
2022-12-11T21:16:42.444Z,13.70
2022-12-11T21:19:16.724Z,14.67
2022-12-11T21:21:46.177Z,14.77
2022-12-11T21:24:16.084Z,18.97
2022-12-11T21:26:44.097Z,17.27
2022-12-11T21:29:12.299Z,17.33
2022-12-11T21:31:42.909Z,16.40
2022-12-11T21:34:13.151Z,14.50
2022-12-11T21:36:41.690Z,14.57
2022-12-11T21:39:12.120Z,13.70
2022-12-11T21:41:40.729Z,13.60
2022-12-11T21:46:56.939Z,13.13
2022-12-11T21:49:26.184Z,13.03
2022-12-11T21:51:54.147Z,12.87
2022-12-11T21:54:22.151Z,13.07
2022-12-11T21:56:50.127Z,13.43
2022-12-11T21:59:18.065Z,14.13
2022-12-11T22:01:47.165Z,13.23
2022-12-11T22:04:16.161Z,13.07
2022-12-11T22:06:47.484Z,13.67
2022-12-11T22:09:15.868Z,12.90
2022-12-11T22:11:46.101Z,12.70
2022-12-11T22:14:14.790Z,12.43
2022-12-11T22:16:43.068Z,12.93
2022-12-11T22:19:11.500Z,11.70
2022-12-11T22:21:39.623Z,12.73
2022-12-11T22:24:09.383Z,11.65
2022-12-11T22:26:37.398Z,12.40
2022-12-11T22:29:05.343Z,13.43
2022-12-11T22:31:33.481Z,12.70
2022-12-11T22:34:01.400Z,12.27
2022-12-11T22:36:29.329Z,12.00
2022-12-11T22:38:57.285Z,12.10
2022-12-11T22:41:28.198Z,11.82
2022-12-11T22:43:56.957Z,11.75
2022-12-11T22:46:27.225Z,13.00
2022-12-11T22:48:55.517Z,11.80
2022-12-11T22:51:23.894Z,12.18
2022-12-11T22:53:51.851Z,13.43
2022-12-11T22:56:19.784Z,12.87
2022-12-11T22:58:49.016Z,13.13
2022-12-11T23:01:20.006Z,13.17
2022-12-11T23:03:48.267Z,12.25
2022-12-11T23:06:20.990Z,12.52
2022-12-11T23:08:49.232Z,12.75
2022-12-11T23:11:19.210Z,13.50
2022-12-11T23:13:48.526Z,12.93
2022-12-11T23:16:16.921Z,13.65
2022-12-11T23:18:45.137Z,12.60
2022-12-11T23:21:14.372Z,13.67
2022-12-11T23:23:42.720Z,13.63
2022-12-11T23:26:13.035Z,13.30
2022-12-11T23:28:42.025Z,12.57
2022-12-11T23:31:11.510Z,14.55
2022-12-11T23:33:39.415Z,13.73
2022-12-11T23:36:08.381Z,12.07
2022-12-11T23:38:36.639Z,12.50
2022-12-11T23:41:05.863Z,12.33
2022-12-11T23:43:35.680Z,12.00
2022-12-11T23:46:03.785Z,11.10
2022-12-11T23:48:34.450Z,11.57
2022-12-11T23:51:03.444Z,11.10
2022-12-11T23:53:31.368Z,11.10
2022-12-11T23:56:04.865Z,10.83
2022-12-11T23:58:33.039Z,10.33
